Califon, New Jersey
Current Conditions -  °F | °C
As of 12:53 PM on Saturday 25 Oct 2014 (Local Time) from KSMQ Reporting Station
Clear Clear  
Wind Chill: 19°   Ceiling: Unl
Heat Index: 19°   Visibility: 10mi
Dew Point:   Wind: 8mph
Humidity: 39%   Direction: 280°W
Pressure: 29.76"   Gusts: NA
Location:  40.72°N, 74.84°W
Report Text: KSMQ 251653Z AUTO 28007KT 10SM CLR 19/05 A2976 RMK AO2 SLP079 T01940050
Loading
Personal Weather Stations






























Interactive Weather Map
Tropical Storm Tracking
New forecast layout! Learn more

10-Day Weather Forecast

Advertisements
Track Severe Weather on mobile